Flight Track Log - Related Links

Times and Time Zones

All times are in EDT time to prevent confusion due to time zone crossing. See the LIA565 flight status page for this flight to view local times or setup timezone preferences in your user account.

Time Position Orientation Groundspeed Altitude Reporting Facility
EDT Latitude Longitude Course Direction KTS MPH feet Rate Location/Type
Tue 05:13:00 PM 14.9584 -60.8651 144° Southeast  Level Estimated
Tue 05:14:00 PM 14.8995 -60.8217 145° Southeast  Level Estimated
Tue 05:15:00 PM 14.8406 -60.7784 145° Southeast  Level Estimated
Tue 05:16:00 PM 14.7816 -60.7351 145° Southeast  Level Estimated
Tue 05:17:00 PM 14.7227 -60.6918 145° Southeast  Level Estimated
Tue 05:18:00 PM 14.6638 -60.6485 145° Southeast  Level Estimated
Tue 05:19:00 PM 14.6048 -60.6053 145° Southeast  Level Estimated
Tue 05:20:00 PM 14.5459 -60.5620 145° Southeast  Level Estimated
Tue 05:21:00 PM 14.4869 -60.5188 145° Southeast  Level Estimated
Tue 05:22:00 PM 14.4279 -60.4757 145° Southeast  Level Estimated
Tue 05:23:00 PM 14.3690 -60.4325 145° Southeast  Level Estimated
Tue 05:24:00 PM 14.3100 -60.3894 145° Southeast  Level Estimated
Tue 05:25:00 PM 14.2510 -60.3463 145° Southeast  Level Estimated
Tue 05:26:00 PM 14.1920 -60.3032 145° Southeast  Level Estimated
Tue 05:27:00 PM 14.1330 -60.2601 145° Southeast  Level Estimated
Tue 05:28:00 PM 14.0739 -60.2171 145° Southeast  Level Estimated
Tue 05:29:00 PM 14.0149 -60.1741 145° Southeast  Level Estimated
Tue 05:30:00 PM 13.9559 -60.1311 145° Southeast  Level Estimated
Tue 05:31:00 PM 13.8968 -60.0881 145° Southeast  Level Estimated
Tue 05:32:00 PM 13.8378 -60.0452 145° Southeast  Level Estimated
Tue 05:33:00 PM 13.7787 -60.0022 145° Southeast  Level Estimated
Tue 05:34:00 PM 13.7197 -59.9593 145° Southeast  Level Estimated
Tue 05:35:00 PM 13.6606 -59.9164 145° Southeast  Level Estimated
Tue 05:36:00 PM 13.6015 -59.8736 145° Southeast  Level Estimated
Tue 05:37:00 PM 13.5424 -59.8307 145° Southeast  Level Estimated
Tue 05:38:00 PM 13.4833 -59.7879 145° Southeast  Level Estimated
Tue 05:39:00 PM 13.4242 -59.7451 145° Southeast  Level Estimated
Tue 05:40:00 PM 13.3651 -59.7023 145° Southeast  Level Estimated
Tue 05:41:00 PM 13.3060 -59.6596 145° Southeast  Level Estimated
Tue 05:42:00 PM 13.2469 -59.6168 145° Southeast  Level Estimated
Tue 05:43:00 PM 13.1878 -59.5741 145° Southeast  Level Estimated
Tue 05:44:00 PM 13.1286 -59.5314 145° Southeast  Level Estimated
Tue 05:45:00 PM 13.0746 -59.4925 145° Southeast  Level Estimated
Tue 05:46:00 PM 13.0746 -59.4925 52° Northeast  Level Estimated
Tue 05:47:00 PM 13.0746 -59.4925 52° Northeast  Level Estimated
Tue 05:48:00 PM 13.0746 -59.4925 52° Northeast  Level Estimated
Tue 05:49:00 PM 13.0746 -59.4925 52° Northeast  Level Estimated
Tue 05:50:00 PM 13.0746 -59.4925 52° Northeast  Level Estimated
Tue 05:51:00 PM 13.0746 -59.4925 52° Northeast  Level Estimated
Tue 05:52:00 PM 13.0746 -59.4925 52° Northeast  Level Estimated
Tue 05:53:00 PM 13.0746 -59.4925 52° Northeast  Level Estimated
Tue 05:54:00 PM 13.0746 -59.4925 52° Northeast  Level Estimated
Tue 05:55:00 PM 13.0746 -59.4925 52° Northeast  Level Estimated
Tue 05:56:00 PM 13.0746 -59.4925 52° Northeast  Level Estimated
Tue 05:57:00 PM 13.0746 -59.4925 52° Northeast  Level Estimated
Tue 05:58:00 PM 13.0746 -59.4925 52° Northeast  Level Estimated
Tue 05:59:00 PM 13.0746 -59.4925 52° Northeast  Level Estimated
Tue 06:00:00 PM 13.0746 -59.4925 52° Northeast  Level Estimated
Tue 06:01:00 PM 13.0746 -59.4925 52° Northeast  Level Estimated

Login

Don't have an account? Register now (free) for customized features, flight alerts, and more!